createdAt,value
2023-04-16T00:00:17.581Z,95189.59
2023-04-16T00:02:44.485Z,95192.28
2023-04-16T00:05:11.232Z,95195.81
2023-04-16T00:07:38.104Z,95200.97
2023-04-16T00:10:05.954Z,95196.72
2023-04-16T00:12:32.759Z,95190.00
2023-04-16T00:14:59.973Z,95193.00
2023-04-16T00:17:27.446Z,95200.59
2023-04-16T00:19:54.360Z,95197.41
2023-04-16T00:22:21.222Z,95203.38
2023-04-16T00:24:47.959Z,95196.97
2023-04-16T00:27:14.628Z,95188.38
2023-04-16T00:29:41.848Z,95201.63
2023-04-16T00:32:08.424Z,95197.75
2023-04-16T00:34:35.883Z,95193.94
2023-04-16T00:37:02.860Z,95196.94
2023-04-16T00:39:29.412Z,95192.34
2023-04-16T00:41:56.135Z,95187.03
2023-04-16T00:44:22.885Z,95194.03
2023-04-16T00:46:49.484Z,95190.84
2023-04-16T00:49:16.325Z,95190.84
2023-04-16T00:51:43.000Z,95196.53
2023-04-16T00:54:09.560Z,95195.69
2023-04-16T00:56:36.956Z,95194.13
2023-04-16T00:59:04.143Z,95186.63
2023-04-16T01:01:31.186Z,95189.31
2023-04-16T01:03:57.997Z,95191.72
2023-04-16T01:06:26.434Z,95192.50
2023-04-16T01:08:53.121Z,95197.69
2023-04-16T01:11:19.810Z,95196.09
2023-04-16T01:13:46.598Z,95193.09
2023-04-16T01:16:13.389Z,95193.38
2023-04-16T01:18:40.250Z,95195.78
2023-04-16T01:21:07.082Z,95193.09
2023-04-16T01:23:34.267Z,95200.59
2023-04-16T01:26:02.318Z,95203.28
2023-04-16T01:28:28.872Z,95202.22
2023-04-16T01:30:55.607Z,95213.50
2023-04-16T01:33:45.543Z,95206.72
2023-04-16T01:36:12.548Z,95208.59
2023-04-16T01:38:39.256Z,95199.13
2023-04-16T01:41:06.013Z,95212.31
2023-04-16T01:43:32.649Z,95209.31
2023-04-16T01:46:30.886Z,95208.53
2023-04-16T01:48:58.544Z,95209.03
2023-04-16T01:51:25.360Z,95208.53
2023-04-16T01:53:52.017Z,95211.44
2023-04-16T01:56:18.737Z,95202.56
2023-04-16T01:58:45.653Z,95207.13
2023-04-16T02:01:14.208Z,95206.34
2023-04-16T02:03:41.236Z,95207.41
2023-04-16T02:06:08.027Z,95200.94
2023-04-16T02:08:35.841Z,95209.03
2023-04-16T02:11:02.453Z,95220.31
2023-04-16T02:13:29.706Z,95210.63
2023-04-16T02:15:56.453Z,95214.31
2023-04-16T02:18:34.603Z,95215.41
2023-04-16T02:21:01.489Z,95217.03
2023-04-16T02:23:28.306Z,95224.03
2023-04-16T02:25:57.509Z,95214.81
2023-04-16T02:28:24.153Z,95210.25
2023-04-16T02:30:50.781Z,95208.34
2023-04-16T02:33:18.903Z,95213.03
2023-04-16T02:35:54.938Z,95215.34
2023-04-16T02:38:21.621Z,95219.91
2023-04-16T02:40:48.351Z,95227.72
2023-04-16T02:43:16.276Z,95220.44
2023-04-16T02:45:43.014Z,95222.03
2023-04-16T02:48:09.589Z,95220.66
2023-04-16T02:50:36.177Z,95229.81
2023-04-16T02:53:02.940Z,95230.94
2023-04-16T02:55:29.585Z,95227.94
2023-04-16T02:57:56.567Z,95227.13
2023-04-16T03:00:23.250Z,95227.13
2023-04-16T03:02:50.088Z,95238.22
2023-04-16T03:05:17.030Z,95237.63
2023-04-16T03:07:43.629Z,95231.16
2023-04-16T03:10:10.671Z,95237.34
2023-04-16T03:12:37.258Z,95241.94
2023-04-16T03:15:06.969Z,95247.03
2023-04-16T03:17:33.677Z,95241.13
2023-04-16T03:20:00.887Z,95240.63
2023-04-16T03:22:27.556Z,95237.91
2023-04-16T03:24:54.139Z,95246.59
2023-04-16T03:27:20.754Z,95242.31
2023-04-16T03:29:48.138Z,95241.50
2023-04-16T03:32:14.865Z,95246.09
2023-04-16T03:34:41.697Z,95259.88
2023-04-16T03:37:08.393Z,95256.88
2023-04-16T03:39:35.275Z,95257.69
2023-04-16T03:42:01.987Z,95256.88
2023-04-16T03:44:28.722Z,95251.19
2023-04-16T03:46:55.360Z,95259.59
2023-04-16T03:49:22.588Z,95268.16
2023-04-16T03:51:49.239Z,95263.06
2023-04-16T03:54:16.148Z,95262.78
2023-04-16T03:56:47.943Z,95276.25
2023-04-16T03:59:14.548Z,95272.47
2023-04-16T04:01:41.416Z,95269.78
2023-04-16T04:04:08.114Z,95270.09
2023-04-16T04:06:36.363Z,95267.38
2023-04-16T04:09:04.200Z,95272.47
2023-04-16T04:11:30.842Z,95263.91
2023-04-16T04:13:57.535Z,95272.97
2023-04-16T04:16:24.219Z,95267.88
2023-04-16T04:18:50.861Z,95269.00
2023-04-16T04:21:17.456Z,95263.91
2023-04-16T04:23:44.133Z,95268.16
2023-04-16T04:26:12.344Z,95268.47
2023-04-16T04:28:40.085Z,95267.69
2023-04-16T04:31:06.695Z,95271.16
2023-04-16T04:33:33.449Z,95273.06
2023-04-16T04:36:00.309Z,95274.69
2023-04-16T04:38:28.394Z,95276.16
2023-04-16T04:40:55.047Z,95277.66
2023-04-16T04:43:23.796Z,95283.06
2023-04-16T04:45:50.923Z,95294.34
2023-04-16T04:48:18.054Z,95292.75
2023-04-16T04:50:45.717Z,95295.16
2023-04-16T04:53:12.559Z,95298.66
2023-04-16T04:55:39.621Z,95300.25
2023-04-16T04:58:06.928Z,95304.56
2023-04-16T05:00:34.756Z,95304.84
2023-04-16T05:03:07.027Z,95309.66
2023-04-16T05:05:33.794Z,95308.34
2023-04-16T05:08:00.371Z,95308.03
2023-04-16T05:10:27.451Z,95306.66
2023-04-16T05:12:54.113Z,95321.47
2023-04-16T05:15:20.841Z,95327.38
2023-04-16T05:17:47.484Z,95324.38
2023-04-16T05:20:14.347Z,95326.50
2023-04-16T05:22:40.944Z,95327.28
2023-04-16T05:25:07.894Z,95336.09
2023-04-16T05:27:34.451Z,95333.63
2023-04-16T05:30:00.992Z,95335.22
2023-04-16T05:32:27.674Z,95328.91
2023-04-16T05:34:54.230Z,95332.94
2023-04-16T05:37:20.870Z,95342.84
2023-04-16T05:39:47.689Z,95345.75
2023-04-16T05:42:14.297Z,95348.16
2023-04-16T05:44:41.066Z,95347.78
2023-04-16T05:47:07.840Z,95349.28
2023-04-16T05:49:34.375Z,95353.00
2023-04-16T05:52:00.943Z,95351.81
2023-04-16T05:54:27.609Z,95353.34
2023-04-16T05:56:54.167Z,95353.53
2023-04-16T05:59:20.744Z,95351.84
2023-04-16T06:01:47.351Z,95351.53
2023-04-16T06:04:14.128Z,95354.66
2023-04-16T06:06:40.794Z,95350.88
2023-04-16T06:09:07.526Z,95357.16
2023-04-16T06:11:35.877Z,95356.53
2023-04-16T06:14:03.219Z,95355.00
2023-04-16T06:16:29.919Z,95362.22
2023-04-16T06:18:56.661Z,95370.44
2023-04-16T06:21:23.495Z,95358.00
2023-04-16T06:23:50.050Z,95358.13
2023-04-16T06:26:16.708Z,95363.13
2023-04-16T06:28:43.299Z,95363.63
2023-04-16T06:31:09.859Z,95363.81
2023-04-16T06:33:36.538Z,95363.31
2023-04-16T06:36:03.253Z,95372.72
2023-04-16T06:38:29.890Z,95368.72
2023-04-16T06:40:56.693Z,95367.13
2023-04-16T06:43:23.387Z,95373.63
2023-04-16T06:45:50.133Z,95372.03
2023-04-16T06:48:16.740Z,95369.31
2023-04-16T06:50:43.609Z,95369.84
2023-04-16T06:53:10.254Z,95370.75
2023-04-16T06:55:36.868Z,95376.84
2023-04-16T06:58:03.538Z,95370.34
2023-04-16T07:00:30.074Z,95372.72
2023-04-16T07:02:58.487Z,95365.91
2023-04-16T07:05:25.593Z,95370.72
2023-04-16T07:07:52.240Z,95379.34
2023-04-16T07:10:18.878Z,95375.22
2023-04-16T07:12:45.559Z,95375.09
2023-04-16T07:15:12.167Z,95385.13
2023-04-16T07:17:38.964Z,95376.41
2023-04-16T07:20:06.301Z,95378.63
2023-04-16T07:22:32.942Z,95373.81
2023-04-16T07:24:59.643Z,95377.22
2023-04-16T07:27:26.301Z,95382.44
2023-04-16T07:29:53.029Z,95385.31
2023-04-16T07:32:21.791Z,95383.94
2023-04-16T07:34:48.556Z,95390.84
2023-04-16T07:37:15.344Z,95385.13
2023-04-16T07:39:42.083Z,95390.72
2023-04-16T07:42:08.883Z,95397.13
2023-04-16T07:44:35.524Z,95399.72
2023-04-16T07:47:05.290Z,95403.63
2023-04-16T07:49:32.260Z,95399.78
2023-04-16T07:51:58.846Z,95406.22
2023-04-16T07:54:26.751Z,95411.63
2023-04-16T07:56:54.345Z,95402.72
2023-04-16T07:59:23.334Z,95413.41
2023-04-16T08:01:53.120Z,95410.59
2023-04-16T08:04:21.048Z,95406.84
2023-04-16T08:06:47.725Z,95403.84
2023-04-16T08:09:14.257Z,95414.06
2023-04-16T08:11:40.883Z,95415.06
2023-04-16T08:14:07.496Z,95413.84
2023-04-16T08:16:34.181Z,95414.19
2023-04-16T08:19:00.809Z,95412.81
2023-04-16T08:21:27.969Z,95424.59
2023-04-16T08:23:54.567Z,95422.59
2023-04-16T08:26:21.279Z,95418.16
2023-04-16T08:28:47.867Z,95421.06
2023-04-16T08:31:14.492Z,95423.31
2023-04-16T08:33:41.213Z,95421.91
2023-04-16T08:36:08.228Z,95428.16
2023-04-16T08:38:34.790Z,95428.56
2023-04-16T08:41:06.017Z,95434.03
2023-04-16T08:43:38.232Z,95440.31
2023-04-16T08:46:09.160Z,95442.78
2023-04-16T08:48:37.259Z,95438.69
2023-04-16T08:51:03.995Z,95448.75
2023-04-16T08:53:40.713Z,95450.56
2023-04-16T08:56:11.574Z,95447.56
2023-04-16T08:58:39.447Z,95448.59
2023-04-16T09:01:06.594Z,95446.53
2023-04-16T09:03:36.178Z,95447.19
2023-04-16T09:06:04.602Z,95445.59
2023-04-16T09:08:31.428Z,95447.03
2023-04-16T09:10:58.442Z,95446.78
2023-04-16T09:13:25.480Z,95448.38
2023-04-16T09:15:53.511Z,95446.81
2023-04-16T09:18:20.705Z,95450.34
2023-04-16T09:20:49.198Z,95446.84
2023-04-16T09:23:15.818Z,95452.56
2023-04-16T09:25:42.454Z,95447.16
2023-04-16T09:28:12.510Z,95447.34
2023-04-16T09:30:39.270Z,95446.38
2023-04-16T09:33:20.282Z,95451.19
2023-04-16T09:35:48.725Z,95456.13
2023-04-16T09:38:15.836Z,95446.56
2023-04-16T09:40:42.731Z,95450.22
2023-04-16T09:43:14.501Z,95459.50
2023-04-16T09:45:51.758Z,95464.31
2023-04-16T09:48:32.092Z,95459.34
2023-04-16T09:51:00.306Z,95455.81
2023-04-16T09:53:26.925Z,95462.19
2023-04-16T09:55:57.006Z,95459.00
2023-04-16T09:58:24.203Z,95456.75
2023-04-16T10:01:08.555Z,95460.41
2023-04-16T10:03:37.221Z,95464.88
2023-04-16T10:06:08.333Z,95466.81
2023-04-16T10:08:34.979Z,95462.31
2023-04-16T10:11:02.527Z,95462.81
2023-04-16T10:13:29.175Z,95467.28
2023-04-16T10:15:56.586Z,95465.16
2023-04-16T10:18:23.954Z,95467.56
2023-04-16T10:20:51.375Z,95466.59
2023-04-16T10:23:20.422Z,95465.63
2023-04-16T10:25:49.278Z,95460.00
2023-04-16T10:28:16.633Z,95467.66
2023-04-16T10:30:49.800Z,95460.78
2023-04-16T10:33:16.568Z,95464.25
2023-04-16T10:35:50.138Z,95464.84
2023-04-16T10:38:26.965Z,95466.34
2023-04-16T10:41:01.892Z,95463.59
2023-04-16T10:43:30.560Z,95458.44
2023-04-16T10:45:57.260Z,95460.19
2023-04-16T10:48:25.514Z,95468.66
2023-04-16T10:50:57.394Z,95465.13
2023-04-16T10:53:26.303Z,95481.06
2023-04-16T10:56:19.393Z,95470.16
2023-04-16T10:58:46.092Z,95464.72
2023-04-16T11:01:14.262Z,95468.41
2023-04-16T11:03:42.471Z,95469.69
2023-04-16T11:06:12.876Z,95471.06
2023-04-16T11:08:53.298Z,95468.97
2023-04-16T11:11:22.395Z,95467.22
2023-04-16T11:13:49.349Z,95472.00
2023-04-16T11:16:18.383Z,95467.88
2023-04-16T11:18:51.292Z,95476.50
2023-04-16T11:21:19.639Z,95470.28
2023-04-16T11:23:51.652Z,95473.44
2023-04-16T11:26:28.807Z,95473.28
2023-04-16T11:28:56.560Z,95463.09
2023-04-16T11:31:24.190Z,95474.16
2023-04-16T11:33:50.880Z,95476.69
2023-04-16T11:36:17.499Z,95473.63
2023-04-16T11:38:44.410Z,95483.59
2023-04-16T11:41:11.603Z,95485.72
2023-04-16T11:43:38.288Z,95490.09
2023-04-16T11:46:20.129Z,95484.84
2023-04-16T11:48:55.384Z,95492.59
2023-04-16T11:51:22.025Z,95491.16
2023-04-16T11:53:53.468Z,95489.09
2023-04-16T11:56:29.125Z,95494.75
2023-04-16T11:59:16.075Z,95490.28
2023-04-16T12:01:50.775Z,95498.59
2023-04-16T12:04:20.864Z,95502.59
2023-04-16T12:07:11.713Z,95491.09
2023-04-16T12:09:40.944Z,95497.63
2023-04-16T12:12:29.072Z,95500.03
2023-04-16T12:14:56.656Z,95491.53
2023-04-16T12:17:24.169Z,95495.72
2023-04-16T12:19:50.680Z,95489.75
2023-04-16T12:22:30.575Z,95489.22
2023-04-16T12:25:08.057Z,95490.84
2023-04-16T12:27:53.467Z,95484.94
2023-04-16T12:30:23.016Z,95490.31
2023-04-16T12:32:51.419Z,95489.78
2023-04-16T12:35:31.704Z,95488.69
2023-04-16T12:37:58.845Z,95498.91
2023-04-16T12:40:25.812Z,95487.56
2023-04-16T12:42:52.504Z,95491.41
2023-04-16T12:45:19.344Z,95498.97
2023-04-16T12:47:46.757Z,95497.91
2023-04-16T12:50:13.371Z,95500.31
2023-04-16T12:52:40.064Z,95495.38
2023-04-16T12:55:07.002Z,95500.81
2023-04-16T12:57:33.698Z,95504.88
2023-04-16T13:00:00.338Z,95502.63
2023-04-16T13:02:27.221Z,95496.59
2023-04-16T13:04:54.659Z,95502.22
2023-04-16T13:07:21.304Z,95502.38
2023-04-16T13:09:47.912Z,95499.50
2023-04-16T13:12:14.694Z,95496.66
2023-04-16T13:14:42.765Z,95497.63
2023-04-16T13:17:11.028Z,95492.03
2023-04-16T13:19:37.650Z,95501.16
2023-04-16T13:22:04.486Z,95499.22
2023-04-16T13:24:31.172Z,95499.56
2023-04-16T13:26:58.001Z,95500.06
2023-04-16T13:29:24.768Z,95499.09
2023-04-16T13:31:51.604Z,95501.84
2023-04-16T13:34:18.363Z,95510.31
2023-04-16T13:36:44.922Z,95511.28
2023-04-16T13:39:11.808Z,95508.41
2023-04-16T13:41:39.053Z,95508.41
2023-04-16T13:44:06.414Z,95511.91
2023-04-16T13:46:33.538Z,95516.56
2023-04-16T13:49:00.147Z,95520.06
2023-04-16T13:51:26.844Z,95515.44
2023-04-16T13:53:54.484Z,95517.50
2023-04-16T13:56:21.128Z,95515.09
2023-04-16T13:58:48.085Z,95524.09
2023-04-16T14:01:17.101Z,95515.09
2023-04-16T14:03:44.212Z,95513.53
2023-04-16T14:06:10.953Z,95515.75
2023-04-16T14:08:37.623Z,95519.44
2023-04-16T14:11:04.343Z,95519.59
2023-04-16T14:13:30.925Z,95513.38
2023-04-16T14:15:57.708Z,95518.03
2023-04-16T14:18:24.359Z,95517.03
2023-04-16T14:20:50.918Z,95518.78
2023-04-16T14:23:17.856Z,95518.66
2023-04-16T14:25:44.485Z,95518.16
2023-04-16T14:28:11.931Z,95516.72
2023-04-16T14:30:39.626Z,95513.22
2023-04-16T14:33:06.611Z,95515.63
2023-04-16T14:35:33.383Z,95519.44
2023-04-16T14:38:00.799Z,95514.00
2023-04-16T14:40:30.105Z,95522.47
2023-04-16T14:42:56.819Z,95521.84
2023-04-16T14:45:23.984Z,95520.41
2023-04-16T14:47:50.647Z,95514.31
2023-04-16T14:50:17.248Z,95517.22
2023-04-16T14:52:43.960Z,95514.63
2023-04-16T14:55:10.660Z,95518.66
2023-04-16T14:57:37.213Z,95526.47
2023-04-16T15:00:04.712Z,95521.03
2023-04-16T15:02:33.740Z,95518.16
2023-04-16T15:05:06.033Z,95527.91
2023-04-16T15:07:32.692Z,95525.50
2023-04-16T15:09:59.396Z,95526.16
2023-04-16T15:12:27.156Z,95526.75
2023-04-16T15:14:53.960Z,95530.22
2023-04-16T15:17:20.791Z,95534.16
2023-04-16T15:19:50.581Z,95527.56
2023-04-16T15:22:17.242Z,95525.88
2023-04-16T15:24:44.102Z,95520.53
2023-04-16T15:27:11.902Z,95516.16
2023-04-16T15:29:38.680Z,95520.63
2023-04-16T15:32:05.522Z,95531.81
2023-04-16T15:34:32.190Z,95521.38
2023-04-16T15:36:58.941Z,95523.81
2023-04-16T15:39:25.792Z,95522.03
2023-04-16T15:44:22.231Z,95518.19
2023-04-16T15:46:49.145Z,95509.81
2023-04-16T15:49:15.831Z,95519.19
2023-04-16T15:51:43.306Z,95512.06
2023-04-16T15:54:09.963Z,95512.53
2023-04-16T15:56:36.793Z,95518.53
2023-04-16T15:59:03.694Z,95523.91
2023-04-16T16:01:30.317Z,95523.59
2023-04-16T16:04:07.367Z,95532.75
2023-04-16T16:06:34.375Z,95533.16
2023-04-16T16:09:01.015Z,95537.34
2023-04-16T16:11:27.838Z,95529.34
2023-04-16T16:13:58.325Z,95532.56
2023-04-16T16:16:25.333Z,95539.78
2023-04-16T16:18:52.809Z,95543.66
2023-04-16T16:21:19.555Z,95539.78
2023-04-16T16:23:46.205Z,95538.41
2023-04-16T16:26:12.854Z,95539.13
2023-04-16T16:28:39.517Z,95544.16
2023-04-16T16:31:06.230Z,95539.91
2023-04-16T16:33:33.256Z,95539.22
2023-04-16T16:35:59.980Z,95544.06
2023-04-16T16:38:26.723Z,95555.63
2023-04-16T16:40:53.325Z,95548.97
2023-04-16T16:43:22.905Z,95549.31
2023-04-16T16:45:49.460Z,95547.44
2023-04-16T16:48:15.990Z,95550.63
2023-04-16T16:50:42.891Z,95547.59
2023-04-16T16:53:09.478Z,95542.63
2023-04-16T16:55:36.077Z,95550.59
2023-04-16T16:58:03.399Z,95550.38
2023-04-16T17:00:29.986Z,95561.53
2023-04-16T17:02:56.748Z,95559.44
2023-04-16T17:05:23.642Z,95559.41
2023-04-16T17:07:50.251Z,95562.09
2023-04-16T17:10:17.066Z,95573.41
2023-04-16T17:12:43.704Z,95568.09
2023-04-16T17:15:10.629Z,95568.44
2023-04-16T17:17:37.246Z,95563.81
2023-04-16T17:20:04.058Z,95568.09
2023-04-16T17:22:30.705Z,95574.34
2023-04-16T17:24:58.718Z,95577.41
2023-04-16T17:27:25.424Z,95581.56
2023-04-16T17:29:52.173Z,95580.16
2023-04-16T17:32:18.836Z,95583.66
2023-04-16T17:34:45.497Z,95582.41
2023-04-16T17:37:12.072Z,95590.66
2023-04-16T17:39:38.885Z,95593.34
2023-04-16T17:42:05.598Z,95593.28
2023-04-16T17:44:32.140Z,95606.00
2023-04-16T17:46:58.763Z,95609.78
2023-04-16T17:49:25.354Z,95604.31
2023-04-16T17:51:54.174Z,95606.47
2023-04-16T17:54:20.845Z,95607.53
2023-04-16T17:56:47.410Z,95614.81
2023-04-16T17:59:14.109Z,95608.03
2023-04-16T18:01:40.785Z,95607.44
2023-04-16T18:04:07.806Z,95616.31
2023-04-16T18:06:34.443Z,95621.97
2023-04-16T18:09:01.136Z,95626.47
2023-04-16T18:11:28.436Z,95622.56
2023-04-16T18:13:56.553Z,95629.00
2023-04-16T18:16:23.205Z,95634.31
2023-04-16T18:18:49.822Z,95632.31
2023-04-16T18:21:16.575Z,95631.94
2023-04-16T18:23:43.141Z,95639.63
2023-04-16T18:26:11.042Z,95633.03
2023-04-16T18:28:37.783Z,95647.66
2023-04-16T18:31:04.799Z,95643.34
2023-04-16T18:33:48.697Z,95645.06
2023-04-16T18:36:18.407Z,95652.75
2023-04-16T18:38:59.558Z,95653.94
2023-04-16T18:41:28.434Z,95657.81
2023-04-16T18:43:55.057Z,95658.69
2023-04-16T18:46:22.836Z,95668.53
2023-04-16T18:48:49.598Z,95670.22
2023-04-16T18:51:16.737Z,95672.41
2023-04-16T18:53:43.921Z,95677.03
2023-04-16T18:56:10.608Z,95678.41
2023-04-16T18:58:37.339Z,95674.91
2023-04-16T19:01:04.079Z,95676.22
2023-04-16T19:03:30.893Z,95681.91
2023-04-16T19:05:57.705Z,95681.63
2023-04-16T19:08:24.353Z,95684.63
2023-04-16T19:10:50.960Z,95683.53
2023-04-16T19:13:18.090Z,95687.84
2023-04-16T19:15:44.657Z,95688.66
2023-04-16T19:18:11.252Z,95689.44
2023-04-16T19:20:38.017Z,95695.38
2023-04-16T19:23:06.313Z,95695.66
2023-04-16T19:25:32.845Z,95688.34
2023-04-16T19:27:59.735Z,95688.06
2023-04-16T19:30:26.450Z,95684.03
2023-04-16T19:32:55.113Z,95683.22
2023-04-16T19:35:22.339Z,95684.31
2023-04-16T19:37:49.114Z,95683.03
2023-04-16T19:40:15.711Z,95689.03
2023-04-16T19:42:42.340Z,95689.09
2023-04-16T19:45:09.049Z,95686.47
2023-04-16T19:47:35.726Z,95684.94
2023-04-16T19:50:02.357Z,95692.03
2023-04-16T19:52:28.933Z,95695.91
2023-04-16T19:54:55.669Z,95687.34
2023-04-16T19:57:22.229Z,95684.75
2023-04-16T19:59:49.046Z,95678.63
2023-04-16T20:02:15.620Z,95680.88
2023-04-16T20:04:42.203Z,95679.31
2023-04-16T20:07:08.809Z,95675.06
2023-04-16T20:09:35.444Z,95676.75
2023-04-16T20:12:02.042Z,95682.22
2023-04-16T20:14:28.617Z,95696.31
2023-04-16T20:16:55.191Z,95700.69
2023-04-16T20:19:21.805Z,95693.44
2023-04-16T20:21:48.456Z,95698.63
2023-04-16T20:24:15.060Z,95693.00
2023-04-16T20:26:41.695Z,95697.34
2023-04-16T20:29:08.368Z,95696.03
2023-04-16T20:31:35.006Z,95696.88
2023-04-16T20:34:01.808Z,95697.19
2023-04-16T20:36:28.390Z,95703.97
2023-04-16T20:38:55.020Z,95702.94
2023-04-16T20:41:21.610Z,95702.41
2023-04-16T20:43:48.268Z,95701.91
2023-04-16T20:46:15.031Z,95696.81
2023-04-16T20:48:41.879Z,95697.88
2023-04-16T20:51:08.512Z,95698.69
2023-04-16T20:53:36.074Z,95704.06
2023-04-16T20:56:03.025Z,95695.19
2023-04-16T20:58:29.971Z,95694.09
2023-04-16T21:00:58.015Z,95688.69
2023-04-16T21:03:24.905Z,95685.47
2023-04-16T21:05:53.327Z,95685.47
2023-04-16T21:08:20.393Z,95694.19
2023-04-16T21:10:47.117Z,95697.16
2023-04-16T21:13:13.759Z,95700.94
2023-04-16T21:15:42.190Z,95697.72
2023-04-16T21:18:09.590Z,95694.19
2023-04-16T21:20:36.628Z,95691.50
2023-04-16T21:23:04.769Z,95689.63
2023-04-16T21:25:31.452Z,95697.75
2023-04-16T21:27:57.989Z,95699.53
2023-04-16T21:30:24.568Z,95695.47
2023-04-16T21:32:51.204Z,95696.50
2023-04-16T21:35:17.962Z,95696.72
2023-04-16T21:37:44.535Z,95690.75
2023-04-16T21:40:11.605Z,95695.31
2023-04-16T21:42:38.404Z,95700.91
2023-04-16T21:45:14.631Z,95694.66
2023-04-16T21:47:41.249Z,95701.09
2023-04-16T21:50:08.447Z,95705.91
2023-04-16T21:52:35.089Z,95702.13
2023-04-16T21:55:01.723Z,95696.63
2023-04-16T21:57:28.318Z,95700.38
2023-04-16T21:59:55.340Z,95702.78
2023-04-16T22:02:22.106Z,95693.31
2023-04-16T22:04:48.912Z,95706.75
2023-04-16T22:07:15.456Z,95696.97
2023-04-16T22:09:42.155Z,95692.63
2023-04-16T22:12:08.696Z,95693.94
2023-04-16T22:14:35.380Z,95694.97
2023-04-16T22:17:02.370Z,95690.34
2023-04-16T22:19:29.079Z,95678.16
2023-04-16T22:21:55.872Z,95688.69
2023-04-16T22:24:23.284Z,95682.50
2023-04-16T22:26:49.850Z,95679.78
2023-04-16T22:29:16.473Z,95679.78
2023-04-16T22:31:43.101Z,95691.69
2023-04-16T22:34:09.693Z,95682.25
2023-04-16T22:36:36.305Z,95681.44
2023-04-16T22:39:03.058Z,95683.94
2023-04-16T22:41:29.818Z,95676.66
2023-04-16T22:43:56.453Z,95674.03
2023-04-16T22:46:23.035Z,95679.22
2023-04-16T22:48:49.844Z,95675.50
2023-04-16T22:51:16.384Z,95675.56
2023-04-16T22:53:43.057Z,95671.84
2023-04-16T22:56:09.684Z,95675.41
2023-04-16T22:58:36.407Z,95678.16
2023-04-16T23:01:03.216Z,95677.94
2023-04-16T23:03:29.957Z,95676.91
2023-04-16T23:05:56.531Z,95680.19
2023-04-16T23:08:23.174Z,95675.94
2023-04-16T23:10:49.773Z,95676.22
2023-04-16T23:13:16.388Z,95672.50
2023-04-16T23:15:43.027Z,95686.28
2023-04-16T23:18:09.643Z,95670.66
2023-04-16T23:20:36.334Z,95682.81
2023-04-16T23:23:03.116Z,95676.63
2023-04-16T23:25:29.760Z,95684.22
2023-04-16T23:27:56.467Z,95681.81
2023-04-16T23:30:23.085Z,95682.09
2023-04-16T23:32:49.695Z,95683.75
2023-04-16T23:35:16.463Z,95677.31
2023-04-16T23:37:43.160Z,95677.09
2023-04-16T23:40:10.380Z,95672.25
2023-04-16T23:42:36.955Z,95672.81
2023-04-16T23:45:04.212Z,95678.00
2023-04-16T23:47:30.829Z,95676.16
2023-04-16T23:49:57.416Z,95681.31
2023-04-16T23:52:24.264Z,95674.88
2023-04-16T23:54:50.773Z,95673.84
2023-04-16T23:57:17.377Z,95673.59
2023-04-16T23:59:44.012Z,95675.28
